Suula — OJKZ — position and weather

sailwx.info

Track history (hours):
 
Tides and Currents Weather Stations Pressure Air Temp Water Temp Dewpoint Dewpoint Depression Visibility Wind Speed Wind Dir Waves Ship Positions

Suula

Last reported at 2014-Sep-19 04:32 UTC. Time now 2014-Sep-19 05:53 UTC.
Position N 60°31' E 027°10'.

Length 140 m; draft 6.5 m.

Type: Tanker. MMSI: 230956996.

Date/timePositionNaut miles runAvg speedWind from/ knotsBaromVisibWave heightAir tempDewpointWater temp
2014-Sep-19 04:32N 60°31' E 027°10'0 0.0
2014-Sep-19 03:32N 60°31' E 027°10'0 0.0
2014-Sep-19 02:32N 60°31' E 027°10'0 0.0
2014-Sep-19 01:32N 60°31' E 027°10'0 0.0
2014-Sep-19 00:32N 60°31' E 027°10'0 0.0
2014-Sep-18 23:31N 60°31' E 027°10'0 0.0
2014-Sep-18 22:31N 60°31' E 027°10'0 0.0
2014-Sep-18 21:31N 60°31' E 027°10'0 0.0
2014-Sep-18 20:31N 60°31' E 027°10'0 0.0
2014-Sep-18 19:31N 60°31' E 027°10'0 0.0
2014-Sep-18 18:31N 60°31' E 027°10'0 0.0
2014-Sep-18 17:28N 60°31' E 027°10'0 0.0
2014-Sep-18 16:25N 60°31' E 027°10'0 0.0
2014-Sep-18 15:25N 60°31' E 027°10'0 0.0
2014-Sep-18 14:31N 60°31' E 027°10'0 0.0
2014-Sep-18 13:31N 60°31' E 027°10'0 0.0
2014-Sep-18 12:31N 60°31' E 027°10'0 0.0
2014-Sep-18 11:13N 60°31' E 027°10'0 0.0
2014-Sep-18 10:31N 60°31' E 027°10'0 0.0
2014-Sep-18 09:31N 60°31' E 027°10'0 0.0
2014-Sep-18 08:28N 60°31' E 027°10'0 0.0
2014-Sep-18 07:31N 60°31' E 027°10'0 0.0
2014-Sep-18 06:31N 60°31' E 027°10'0 0.0
2014-Sep-18 05:31N 60°31' E 027°10'0 0.0
2014-Sep-18 04:31N 60°31' E 027°10'2 2.3
2014-Sep-18 03:33N 60°30' E 027°13'1 1.2
2014-Sep-18 02:32N 60°29' E 027°15'0 0.0
2014-Sep-18 01:32N 60°29' E 027°15'0 0.0
2014-Sep-18 00:32N 60°29' E 027°15'0 0.0
2014-Sep-17 23:29N 60°29' E 027°15'0 0.0
2014-Sep-17 22:32N 60°29' E 027°15'0 0.0
2014-Sep-17 21:32N 60°29' E 027°15'0 0.0
2014-Sep-17 20:32N 60°29' E 027°15'0 0.1
2014-Sep-17 19:32N 60°29' E 027°15'0 0.0
2014-Sep-17 18:32N 60°29' E 027°15'0 0.0
2014-Sep-17 17:32N 60°29' E 027°15'0 0.0
2014-Sep-17 16:32N 60°29' E 027°15'2 2.3
2014-Sep-17 15:33N 60°30' E 027°12'1 1.1
2014-Sep-17 14:29N 60°31' E 027°10'0 0.0
2014-Sep-17 13:32N 60°31' E 027°10'0 0.0
2014-Sep-17 12:32N 60°31' E 027°10'0 0.0
2014-Sep-17 11:32N 60°31' E 027°10'0 0.0
2014-Sep-17 10:32N 60°31' E 027°10'0 0.0
2014-Sep-17 09:26N 60°31' E 027°10'0 0.0
2014-Sep-17 08:32N 60°31' E 027°10'0 0.0
2014-Sep-17 07:32N 60°31' E 027°10'2 1.6
2014-Sep-17 06:33N 60°30' E 027°09'10 9.9
2014-Sep-17 05:33N 60°21' E 026°59'1313.2
2014-Sep-17 04:33N 60°18' E 026°33'1414.2
2014-Sep-17 03:33N 60°06' E 026°16'1514.8
2014-Sep-17 02:33N 59°59' E 025°50'1311.5
2014-Sep-17 01:27N 60°10' E 025°35'9 8.2
2014-Sep-17 00:21N 60°19' E 025°33'0 0.0
2014-Sep-16 23:22N 60°19' E 025°33'0 0.0
2014-Sep-16 22:31N 60°19' E 025°33'0 0.0
2014-Sep-16 21:30N 60°19' E 025°33'0 0.0
2014-Sep-16 20:33N 60°19' E 025°33'0 0.0
2014-Sep-16 07:21N 60°19' E 025°33'11 0.6
2014-Sep-15 13:30N 60°07' E 025°35'5 4.0
2014-Sep-15 12:11N 60°02' E 025°32'2 3.5
2014-Sep-15 11:33N 60°04' E 025°34'14 3.6
2014-Sep-15 07:31N 60°18' E 025°33'0 0.0
2014-Sep-15 06:31N 60°18' E 025°33'0 0.0
2014-Sep-15 05:31N 60°18' E 025°33'0 0.0
2014-Sep-14 20:25N 60°18' E 025°33'0 0.0
2014-Sep-14 19:31N 60°18' E 025°33'0 0.0
2014-Sep-14 18:31N 60°18' E 025°33'0 0.0
2014-Sep-14 17:31N 60°18' E 025°33'39 1.0
2014-Sep-13 02:33N 59°46' E 024°49'1111.3
2014-Sep-13 01:33N 59°44' E 024°27'1411.5
2014-Sep-13 00:21N 59°40' E 024°01'911.7
2014-Sep-12 23:33N 59°37' E 023°43'1211.8
2014-Sep-12 22:33N 59°34' E 023°21'5611.0
2014-Sep-12 17:29N 59°35' E 021°31'1111.4
2014-Sep-12 16:33N 59°45' E 021°21'1211.8
2014-Sep-12 15:31N 59°55' E 021°35'  
2014-Sep-09 12:33N 59°38' E 023°08'1413.8
2014-Sep-09 11:33N 59°41' E 023°34'1413.8
2014-Sep-09 10:33N 59°44' E 024°01'1414.0
2014-Sep-09 09:33N 59°48' E 024°28'2813.8
2014-Sep-09 07:33N 59°56' E 025°20'9 8.9
2014-Sep-09 06:30N 60°02' E 025°34'  
Track history (hours):
 
Tides and Currents Weather Stations Pressure Air Temp Water Temp Dewpoint Dewpoint Depression Visibility Wind Speed Wind Dir Waves Ship Positions

Suula

Last reported at 2014-Sep-19 04:32 UTC. Time now 2014-Sep-19 05:53 UTC.
Position N 60°31' E 027°10'.

Length 140 m; draft 6.5 m.

Type: Tanker. MMSI: 230956996.

Date/timePositionNaut miles runAvg speedWind from/ knotsBaromVisibWave heightAir tempDewpointWater temp
2014-Sep-19 04:32N 60°31' E 027°10'0 0.0
2014-Sep-19 03:32N 60°31' E 027°10'0 0.0
2014-Sep-19 02:32N 60°31' E 027°10'0 0.0
2014-Sep-19 01:32N 60°31' E 027°10'0 0.0
2014-Sep-19 00:32N 60°31' E 027°10'0 0.0
2014-Sep-18 23:31N 60°31' E 027°10'0 0.0
2014-Sep-18 22:31N 60°31' E 027°10'0 0.0
2014-Sep-18 21:31N 60°31' E 027°10'0 0.0
2014-Sep-18 20:31N 60°31' E 027°10'0 0.0
2014-Sep-18 19:31N 60°31' E 027°10'0 0.0
2014-Sep-18 18:31N 60°31' E 027°10'0 0.0
2014-Sep-18 17:28N 60°31' E 027°10'0 0.0
2014-Sep-18 16:25N 60°31' E 027°10'0 0.0
2014-Sep-18 15:25N 60°31' E 027°10'0 0.0
2014-Sep-18 14:31N 60°31' E 027°10'0 0.0
2014-Sep-18 13:31N 60°31' E 027°10'0 0.0
2014-Sep-18 12:31N 60°31' E 027°10'0 0.0
2014-Sep-18 11:13N 60°31' E 027°10'0 0.0
2014-Sep-18 10:31N 60°31' E 027°10'0 0.0
2014-Sep-18 09:31N 60°31' E 027°10'0 0.0
2014-Sep-18 08:28N 60°31' E 027°10'0 0.0
2014-Sep-18 07:31N 60°31' E 027°10'0 0.0
2014-Sep-18 06:31N 60°31' E 027°10'0 0.0
2014-Sep-18 05:31N 60°31' E 027°10'0 0.0
2014-Sep-18 04:31N 60°31' E 027°10'2 2.3
2014-Sep-18 03:33N 60°30' E 027°13'1 1.2
2014-Sep-18 02:32N 60°29' E 027°15'0 0.0
2014-Sep-18 01:32N 60°29' E 027°15'0 0.0
2014-Sep-18 00:32N 60°29' E 027°15'0 0.0
2014-Sep-17 23:29N 60°29' E 027°15'0 0.0
2014-Sep-17 22:32N 60°29' E 027°15'0 0.0
2014-Sep-17 21:32N 60°29' E 027°15'0 0.0
2014-Sep-17 20:32N 60°29' E 027°15'0 0.1
2014-Sep-17 19:32N 60°29' E 027°15'0 0.0
2014-Sep-17 18:32N 60°29' E 027°15'0 0.0
2014-Sep-17 17:32N 60°29' E 027°15'0 0.0
2014-Sep-17 16:32N 60°29' E 027°15'2 2.3
2014-Sep-17 15:33N 60°30' E 027°12'1 1.1
2014-Sep-17 14:29N 60°31' E 027°10'0 0.0
2014-Sep-17 13:32N 60°31' E 027°10'0 0.0
2014-Sep-17 12:32N 60°31' E 027°10'0 0.0
2014-Sep-17 11:32N 60°31' E 027°10'0 0.0
2014-Sep-17 10:32N 60°31' E 027°10'0 0.0
2014-Sep-17 09:26N 60°31' E 027°10'0 0.0
2014-Sep-17 08:32N 60°31' E 027°10'0 0.0
2014-Sep-17 07:32N 60°31' E 027°10'2 1.6
2014-Sep-17 06:33N 60°30' E 027°09'10 9.9
2014-Sep-17 05:33N 60°21' E 026°59'1313.2
2014-Sep-17 04:33N 60°18' E 026°33'1414.2
2014-Sep-17 03:33N 60°06' E 026°16'1514.8
2014-Sep-17 02:33N 59°59' E 025°50'1311.5
2014-Sep-17 01:27N 60°10' E 025°35'9 8.2
2014-Sep-17 00:21N 60°19' E 025°33'0 0.0
2014-Sep-16 23:22N 60°19' E 025°33'0 0.0
2014-Sep-16 22:31N 60°19' E 025°33'0 0.0
2014-Sep-16 21:30N 60°19' E 025°33'0 0.0
2014-Sep-16 20:33N 60°19' E 025°33'0 0.0
2014-Sep-16 07:21N 60°19' E 025°33'11 0.6
2014-Sep-15 13:30N 60°07' E 025°35'5 4.0
2014-Sep-15 12:11N 60°02' E 025°32'2 3.5
2014-Sep-15 11:33N 60°04' E 025°34'14 3.6
2014-Sep-15 07:31N 60°18' E 025°33'0 0.0
2014-Sep-15 06:31N 60°18' E 025°33'0 0.0
2014-Sep-15 05:31N 60°18' E 025°33'0 0.0
2014-Sep-14 20:25N 60°18' E 025°33'0 0.0
2014-Sep-14 19:31N 60°18' E 025°33'0 0.0
2014-Sep-14 18:31N 60°18' E 025°33'0 0.0
2014-Sep-14 17:31N 60°18' E 025°33'39 1.0
2014-Sep-13 02:33N 59°46' E 024°49'1111.3
2014-Sep-13 01:33N 59°44' E 024°27'1411.5
2014-Sep-13 00:21N 59°40' E 024°01'911.7
2014-Sep-12 23:33N 59°37' E 023°43'1211.8
2014-Sep-12 22:33N 59°34' E 023°21'5611.0
2014-Sep-12 17:29N 59°35' E 021°31'1111.4
2014-Sep-12 16:33N 59°45' E 021°21'1211.8
2014-Sep-12 15:31N 59°55' E 021°35'  
2014-Sep-09 12:33N 59°38' E 023°08'1413.8
2014-Sep-09 11:33N 59°41' E 023°34'1413.8
2014-Sep-09 10:33N 59°44' E 024°01'1414.0
2014-Sep-09 09:33N 59°48' E 024°28'2813.8
2014-Sep-09 07:33N 59°56' E 025°20'9 8.9
2014-Sep-09 06:30N 60°02' E 025°34'  

Dump ship's entire track history